createdAt,value
2022-08-02T00:00:12.207Z,24.78
2022-08-02T00:02:39.084Z,24.77
2022-08-02T00:05:06.585Z,24.76
2022-08-02T00:07:39.005Z,24.79
2022-08-02T00:10:09.420Z,24.67
2022-08-02T00:12:37.977Z,24.73
2022-08-02T00:15:07.196Z,24.78
2022-08-02T00:17:34.086Z,24.72
2022-08-02T00:20:02.088Z,24.83
2022-08-02T00:22:30.272Z,24.95
2022-08-02T00:24:57.064Z,24.92
2022-08-02T00:27:23.930Z,24.79
2022-08-02T00:29:52.995Z,24.62
2022-08-02T00:32:22.386Z,24.58
2022-08-02T00:34:50.728Z,24.43
2022-08-02T00:37:17.582Z,24.47
2022-08-02T00:39:44.740Z,24.39
2022-08-02T00:42:15.116Z,24.21
2022-08-02T00:44:42.679Z,24.17
2022-08-02T00:47:09.842Z,24.28
2022-08-02T00:49:37.402Z,24.40
2022-08-02T00:52:05.287Z,24.52
2022-08-02T00:54:32.047Z,24.48
2022-08-02T00:56:58.904Z,24.46
2022-08-02T00:59:25.698Z,24.36
2022-08-02T01:01:57.440Z,24.42
2022-08-02T01:04:31.546Z,24.41
2022-08-02T01:07:12.802Z,24.65
2022-08-02T01:09:44.837Z,24.47
2022-08-02T01:12:13.038Z,24.26
2022-08-02T01:14:46.010Z,24.19
2022-08-02T01:17:44.484Z,24.22
2022-08-02T01:20:34.711Z,24.33
2022-08-02T01:23:45.421Z,24.04
2022-08-02T01:26:53.704Z,24.07
2022-08-02T01:29:34.349Z,24.16
2022-08-02T01:32:33.942Z,24.03
2022-08-02T01:35:11.742Z,24.11
2022-08-02T01:37:48.312Z,23.97
2022-08-02T01:40:22.966Z,23.91
2022-08-02T01:42:54.081Z,24.19
2022-08-02T01:45:26.803Z,24.16
2022-08-02T01:47:54.860Z,24.05
2022-08-02T01:50:26.728Z,24.13
2022-08-02T01:52:58.002Z,24.07
2022-08-02T01:55:57.894Z,23.89
2022-08-02T01:58:30.092Z,23.87
2022-08-02T02:00:58.352Z,23.69
2022-08-02T02:03:27.127Z,23.63
2022-08-02T02:05:57.500Z,23.65
2022-08-02T02:08:30.436Z,23.72
2022-08-02T02:12:11.409Z,23.79
2022-08-02T02:13:47.447Z,23.61
2022-08-02T02:16:15.721Z,23.77
2022-08-02T02:18:44.488Z,23.54
2022-08-02T02:21:13.325Z,23.44
2022-08-02T02:23:40.772Z,23.34
2022-08-02T02:26:12.989Z,23.25
2022-08-02T02:28:40.004Z,23.20
2022-08-02T02:31:09.969Z,23.22
2022-08-02T02:33:44.377Z,23.36
2022-08-02T02:36:12.018Z,23.39
2022-08-02T02:38:40.308Z,23.37
2022-08-02T02:41:07.276Z,23.15
2022-08-02T02:43:36.270Z,23.04
2022-08-02T02:46:05.366Z,23.01
2022-08-02T02:48:32.981Z,23.04
2022-08-02T02:51:03.372Z,23.11
2022-08-02T02:54:32.903Z,23.08
2022-08-02T02:56:18.709Z,23.24
2022-08-02T02:58:46.960Z,23.17
2022-08-02T03:01:56.363Z,23.23
2022-08-02T03:04:18.047Z,23.06
2022-08-02T03:06:45.098Z,23.14
2022-08-02T03:09:12.359Z,23.22
2022-08-02T03:11:40.813Z,23.16
2022-08-02T03:14:10.908Z,23.22
2022-08-02T03:16:51.692Z,23.33
2022-08-02T03:19:20.017Z,23.49
2022-08-02T03:21:48.522Z,23.41
2022-08-02T03:24:27.575Z,23.34
2022-08-02T03:26:55.671Z,23.09
2022-08-02T03:29:22.645Z,22.96
2022-08-02T03:31:50.230Z,22.99
2022-08-02T03:34:17.192Z,23.07
2022-08-02T03:36:45.656Z,23.01
2022-08-02T03:39:12.786Z,22.83
2022-08-02T03:41:41.200Z,22.89
2022-08-02T03:44:09.337Z,22.97
2022-08-02T03:46:39.548Z,23.07
2022-08-02T03:49:08.643Z,23.12
2022-08-02T03:51:35.840Z,22.75
2022-08-02T03:54:04.300Z,22.62
2022-08-02T03:56:32.012Z,22.67
2022-08-02T03:59:09.208Z,22.51
2022-08-02T04:01:35.982Z,22.60
2022-08-02T04:04:02.883Z,22.73
2022-08-02T04:06:29.593Z,22.78
2022-08-02T04:08:56.345Z,22.71
2022-08-02T04:11:31.985Z,22.65
2022-08-02T04:14:05.415Z,22.72
2022-08-02T04:16:54.439Z,22.80
2022-08-02T04:19:31.108Z,22.74
2022-08-02T04:22:01.797Z,22.67
2022-08-02T04:24:32.264Z,22.58
2022-08-02T04:27:06.499Z,22.49
2022-08-02T04:29:35.174Z,22.58
2022-08-02T04:32:03.449Z,22.68
2022-08-02T04:34:30.728Z,22.60
2022-08-02T04:36:58.779Z,22.51
2022-08-02T04:39:26.657Z,22.56
2022-08-02T04:41:57.607Z,22.45
2022-08-02T04:44:24.877Z,22.43
2022-08-02T04:46:52.731Z,22.34
2022-08-02T04:49:19.531Z,22.50
2022-08-02T04:51:46.311Z,22.58
2022-08-02T04:54:13.090Z,22.48
2022-08-02T04:56:40.697Z,22.55
2022-08-02T04:59:07.684Z,22.65
2022-08-02T05:01:35.638Z,22.76
2022-08-02T05:04:03.237Z,22.77
2022-08-02T05:06:29.964Z,22.47
2022-08-02T05:08:56.696Z,22.62
2022-08-02T05:11:34.509Z,22.63
2022-08-02T05:14:04.448Z,22.57
2022-08-02T05:16:32.339Z,22.83
2022-08-02T05:19:01.056Z,23.02
2022-08-02T05:21:28.016Z,23.03
2022-08-02T05:23:54.720Z,23.08
2022-08-02T05:26:21.471Z,23.13
2022-08-02T05:28:48.267Z,23.16
2022-08-02T05:31:15.045Z,23.19
2022-08-02T05:33:42.139Z,22.99
2022-08-02T05:36:09.521Z,23.07
2022-08-02T05:38:37.726Z,23.17
2022-08-02T05:41:07.827Z,23.20
2022-08-02T05:43:34.603Z,23.16
2022-08-02T05:46:01.480Z,23.33
2022-08-02T05:48:31.850Z,23.32
2022-08-02T05:51:38.878Z,23.22
2022-08-02T05:54:19.013Z,23.44
2022-08-02T05:56:48.987Z,23.51
2022-08-02T05:59:33.424Z,23.55
2022-08-02T06:02:04.811Z,23.50
2022-08-02T06:04:56.924Z,23.45
2022-08-02T06:07:24.426Z,23.46
2022-08-02T06:09:51.682Z,23.19
2022-08-02T06:12:19.665Z,23.47
2022-08-02T06:14:50.183Z,23.62
2022-08-02T06:17:19.824Z,23.33
2022-08-02T06:19:52.225Z,23.47
2022-08-02T06:22:40.270Z,23.47
2022-08-02T06:25:11.413Z,23.72
2022-08-02T06:27:40.337Z,23.76
2022-08-02T06:30:09.658Z,24.08
2022-08-02T06:32:36.537Z,24.13
2022-08-02T06:35:04.717Z,24.43
2022-08-02T06:37:46.774Z,24.41
2022-08-02T06:40:25.436Z,24.47
2022-08-02T06:43:03.103Z,24.24
2022-08-02T06:45:30.058Z,24.11
2022-08-02T06:47:56.811Z,24.11
2022-08-02T06:50:23.549Z,24.13
2022-08-02T06:52:50.264Z,24.27
2022-08-02T06:55:17.618Z,24.33
2022-08-02T06:57:44.524Z,24.29
2022-08-02T07:00:12.450Z,24.35
2022-08-02T07:02:42.590Z,24.43
2022-08-02T07:05:09.897Z,24.58
2022-08-02T07:07:39.944Z,24.60
2022-08-02T07:10:09.799Z,24.84
2022-08-02T07:12:37.355Z,24.91
2022-08-02T07:15:08.479Z,24.84
2022-08-02T07:17:35.783Z,25.00
2022-08-02T07:20:03.142Z,25.20
2022-08-02T07:22:31.083Z,25.29
2022-08-02T07:24:59.860Z,25.23
2022-08-02T07:27:28.193Z,25.46
2022-08-02T07:29:56.041Z,25.52
2022-08-02T07:32:25.752Z,25.46
2022-08-02T07:34:55.054Z,25.56
2022-08-02T07:37:53.961Z,25.59
2022-08-02T07:40:14.724Z,25.57
2022-08-02T07:42:52.331Z,25.68
2022-08-02T07:45:20.823Z,25.83
2022-08-02T07:47:47.757Z,26.05
2022-08-02T07:50:16.862Z,26.12
2022-08-02T07:52:44.801Z,26.09
2022-08-02T07:55:13.416Z,26.11
2022-08-02T07:57:45.798Z,26.11
2022-08-02T08:00:15.890Z,26.35
2022-08-02T08:02:43.079Z,26.29
2022-08-02T08:05:10.131Z,26.41
2022-08-02T08:07:36.861Z,26.33
2022-08-02T08:10:05.611Z,26.47
2022-08-02T08:12:32.305Z,26.63
2022-08-02T08:14:59.003Z,26.85
2022-08-02T08:17:26.143Z,26.90
2022-08-02T08:19:53.215Z,26.99
2022-08-02T08:22:21.040Z,26.79
2022-08-02T08:24:48.707Z,26.83
2022-08-02T08:27:16.929Z,26.74
2022-08-02T08:29:44.240Z,26.71
2022-08-02T08:32:16.008Z,26.79
2022-08-02T08:34:43.897Z,26.79
2022-08-02T08:37:17.906Z,26.77
2022-08-02T08:39:57.850Z,26.79
2022-08-02T08:42:30.575Z,26.79
2022-08-02T08:44:58.791Z,26.84
2022-08-02T08:47:47.762Z,26.98
2022-08-02T08:50:24.995Z,27.17
2022-08-02T08:53:04.102Z,27.22
2022-08-02T08:55:32.189Z,27.23
2022-08-02T08:58:00.376Z,27.03
2022-08-02T09:00:27.852Z,26.98
2022-08-02T09:02:55.033Z,27.17
2022-08-02T09:05:22.114Z,27.17
2022-08-02T09:07:50.827Z,27.30
2022-08-02T09:10:47.109Z,27.45
2022-08-02T09:13:45.485Z,27.40
2022-08-02T09:16:14.775Z,27.35
2022-08-02T09:18:50.311Z,27.61
2022-08-02T09:21:21.296Z,27.49
2022-08-02T09:23:49.793Z,27.62
2022-08-02T09:26:19.105Z,27.41
2022-08-02T09:28:51.664Z,27.29
2022-08-02T09:31:24.398Z,27.39
2022-08-02T09:33:55.139Z,27.43
2022-08-02T09:36:22.964Z,27.69
2022-08-02T09:39:00.097Z,27.83
2022-08-02T09:41:32.102Z,27.86
2022-08-02T09:44:03.249Z,27.92
2022-08-02T09:46:36.214Z,28.14
2022-08-02T09:49:09.480Z,28.05
2022-08-02T09:51:49.049Z,28.14
2022-08-02T09:54:28.567Z,28.14
2022-08-02T09:56:58.958Z,28.17
2022-08-02T09:59:26.985Z,28.28
2022-08-02T10:02:01.829Z,28.31
2022-08-02T10:04:52.543Z,28.37
2022-08-02T10:07:22.559Z,28.41
2022-08-02T10:09:51.367Z,28.17
2022-08-02T10:12:20.081Z,28.23
2022-08-02T10:14:50.294Z,28.26
2022-08-02T10:17:20.098Z,28.05
2022-08-02T10:20:02.189Z,28.04
2022-08-02T10:22:34.327Z,28.17
2022-08-02T10:25:03.608Z,28.06
2022-08-02T10:27:43.174Z,28.09
2022-08-02T10:30:16.055Z,28.06
2022-08-02T10:32:46.274Z,28.23
2022-08-02T10:35:25.164Z,28.28
2022-08-02T10:37:58.175Z,28.19
2022-08-02T10:40:26.549Z,28.27
2022-08-02T10:43:00.942Z,28.36
2022-08-02T10:45:28.551Z,28.42
2022-08-02T10:48:11.705Z,28.58
2022-08-02T10:50:47.974Z,28.53
2022-08-02T10:53:33.830Z,28.47
2022-08-02T10:56:04.734Z,28.44
2022-08-02T10:58:32.809Z,28.42
2022-08-02T11:01:06.303Z,28.50
2022-08-02T11:03:39.351Z,28.51
2022-08-02T11:06:25.636Z,28.50
2022-08-02T11:09:33.676Z,28.45
2022-08-02T11:12:14.778Z,28.48
2022-08-02T11:14:45.043Z,28.39
2022-08-02T11:17:12.906Z,28.57
2022-08-02T11:20:11.087Z,28.48
2022-08-02T11:22:42.709Z,28.55
2022-08-02T11:25:24.770Z,28.58
2022-08-02T11:27:52.812Z,28.54
2022-08-02T11:30:26.523Z,28.58
2022-08-02T11:32:58.481Z,28.61
2022-08-02T11:35:40.068Z,28.64
2022-08-02T11:38:21.054Z,28.69
2022-08-02T11:40:49.100Z,28.67
2022-08-02T11:43:17.628Z,28.52
2022-08-02T11:45:44.836Z,28.55
2022-08-02T11:48:11.676Z,28.60
2022-08-02T11:50:38.549Z,28.63
2022-08-02T11:53:17.553Z,28.67
2022-08-02T11:55:44.763Z,28.71
2022-08-02T11:58:11.927Z,28.85
2022-08-02T12:00:39.655Z,28.84
2022-08-02T12:03:07.611Z,28.76
2022-08-02T12:06:03.861Z,28.64
2022-08-02T12:08:25.220Z,28.54
2022-08-02T12:10:53.268Z,28.56
2022-08-02T12:13:20.011Z,28.49
2022-08-02T12:15:47.343Z,28.56
2022-08-02T12:18:35.967Z,28.49
2022-08-02T12:21:04.654Z,28.56
2022-08-02T12:23:31.684Z,28.52
2022-08-02T12:26:07.306Z,28.53
2022-08-02T12:28:36.347Z,28.56
2022-08-02T12:31:05.455Z,28.54
2022-08-02T12:33:47.499Z,28.85
2022-08-02T12:36:34.695Z,28.78
2022-08-02T12:39:01.584Z,28.84
2022-08-02T12:41:32.269Z,28.73
2022-08-02T12:44:00.304Z,28.73
2022-08-02T12:46:27.359Z,29.00
2022-08-02T12:49:16.490Z,29.03
2022-08-02T12:51:56.372Z,28.95
2022-08-02T12:54:30.794Z,28.84
2022-08-02T12:57:13.970Z,28.83
2022-08-02T12:59:42.846Z,29.05
2022-08-02T13:02:12.662Z,28.99
2022-08-02T13:04:41.585Z,29.09
2022-08-02T13:07:17.616Z,29.00
2022-08-02T13:09:45.944Z,28.96
2022-08-02T13:12:13.184Z,29.08
2022-08-02T13:14:41.955Z,29.17
2022-08-02T13:17:10.450Z,29.23
2022-08-02T13:19:38.437Z,29.18
2022-08-02T13:22:06.287Z,29.52
2022-08-02T13:24:40.759Z,29.72
2022-08-02T13:27:22.307Z,29.40
2022-08-02T13:29:50.226Z,29.33
2022-08-02T13:32:17.767Z,29.46
2022-08-02T13:34:44.573Z,29.62
2022-08-02T13:37:11.521Z,29.49
2022-08-02T13:39:38.473Z,29.48
2022-08-02T13:42:05.890Z,29.51
2022-08-02T13:44:33.627Z,29.65
2022-08-02T13:47:01.518Z,29.93
2022-08-02T13:49:50.820Z,29.99
2022-08-02T13:52:15.541Z,29.98
2022-08-02T13:54:42.713Z,29.98
2022-08-02T13:57:09.545Z,29.99
2022-08-02T13:59:56.996Z,30.23
2022-08-02T14:02:23.015Z,30.28
2022-08-02T14:04:49.888Z,30.50
2022-08-02T14:07:16.537Z,30.46
2022-08-02T14:09:43.632Z,30.53
2022-08-02T14:12:11.224Z,30.79
2022-08-02T14:14:38.607Z,30.72
2022-08-02T14:17:05.779Z,30.58
2022-08-02T14:19:32.697Z,30.62
2022-08-02T14:22:10.898Z,30.81
2022-08-02T14:24:40.146Z,31.06
2022-08-02T14:27:06.957Z,31.25
2022-08-02T14:29:33.833Z,31.48
2022-08-02T14:32:00.805Z,31.74
2022-08-02T14:34:28.392Z,31.86
2022-08-02T14:36:56.450Z,32.10
2022-08-02T14:39:23.190Z,32.28
2022-08-02T14:41:59.366Z,32.35
2022-08-02T14:44:28.864Z,32.28
2022-08-02T14:46:56.174Z,32.47
2022-08-02T14:49:25.902Z,32.97
2022-08-02T14:51:54.262Z,33.06
2022-08-02T14:54:28.129Z,33.84
2022-08-02T14:56:58.736Z,35.45
2022-08-02T14:59:25.674Z,37.36
2022-08-02T15:01:52.806Z,38.20
2022-08-02T15:04:19.562Z,39.20
2022-08-02T15:06:49.317Z,39.32
2022-08-02T15:09:16.637Z,38.44
2022-08-02T15:11:48.192Z,40.14
2022-08-02T15:14:20.320Z,39.88
2022-08-02T15:16:58.795Z,39.54
2022-08-02T15:19:47.002Z,37.15
2022-08-02T15:22:16.578Z,37.03
2022-08-02T15:24:46.078Z,37.24
2022-08-02T15:27:15.757Z,37.54
2022-08-02T15:29:44.398Z,37.71
2022-08-02T15:32:12.882Z,36.97
2022-08-02T15:34:40.586Z,37.03
2022-08-02T15:37:07.527Z,36.66
2022-08-02T15:39:34.235Z,37.07
2022-08-02T15:42:01.328Z,36.93
2022-08-02T15:44:28.289Z,36.29
2022-08-02T15:46:55.647Z,34.70
2022-08-02T15:49:23.939Z,33.47
2022-08-02T15:51:52.500Z,32.95
2022-08-02T15:54:19.915Z,32.58
2022-08-02T15:56:46.742Z,32.32
2022-08-02T15:59:13.718Z,32.09
2022-08-02T16:01:44.874Z,32.13
2022-08-02T16:04:16.672Z,31.84
2022-08-02T16:06:43.911Z,31.74
2022-08-02T16:09:11.076Z,31.73
2022-08-02T16:11:38.214Z,31.64
2022-08-02T16:14:05.739Z,31.48
2022-08-02T16:16:36.158Z,31.40
2022-08-02T16:19:47.940Z,31.39
2022-08-02T16:21:52.800Z,31.51
2022-08-02T16:24:20.205Z,31.40
2022-08-02T16:26:48.556Z,31.27
2022-08-02T16:29:18.838Z,31.02
2022-08-02T16:31:49.707Z,30.91
2022-08-02T16:34:17.509Z,30.79
2022-08-02T16:36:46.062Z,31.01
2022-08-02T16:39:13.202Z,31.14
2022-08-02T16:41:50.585Z,31.04
2022-08-02T16:44:29.671Z,30.85
2022-08-02T16:47:01.487Z,30.80
2022-08-02T16:50:05.518Z,30.73
2022-08-02T16:52:19.071Z,30.72
2022-08-02T16:54:49.878Z,30.70
2022-08-02T16:57:19.670Z,30.63
2022-08-02T16:59:57.720Z,30.60
2022-08-02T17:02:28.640Z,30.61
2022-08-02T17:04:55.686Z,30.59
2022-08-02T17:08:07.318Z,30.57
2022-08-02T17:10:10.501Z,30.54
2022-08-02T17:12:39.000Z,30.61
2022-08-02T17:16:01.361Z,30.64
2022-08-02T17:17:54.430Z,30.31
2022-08-02T17:20:21.404Z,30.24
2022-08-02T17:22:51.468Z,30.21
2022-08-02T17:25:18.364Z,30.16
2022-08-02T17:27:46.161Z,30.10
2022-08-02T17:30:13.947Z,30.01
2022-08-02T17:32:45.521Z,29.91
2022-08-02T17:35:15.703Z,29.82
2022-08-02T17:37:54.752Z,29.89
2022-08-02T17:40:27.132Z,29.96
2022-08-02T17:42:54.126Z,29.90
2022-08-02T17:45:25.758Z,29.80
2022-08-02T17:48:07.567Z,29.74
2022-08-02T17:50:35.659Z,29.63
2022-08-02T17:53:03.836Z,29.66
2022-08-02T17:55:31.413Z,29.55
2022-08-02T17:57:59.677Z,29.51
2022-08-02T18:00:34.640Z,29.50
2022-08-02T18:03:05.493Z,29.54
2022-08-02T18:05:39.802Z,29.53
2022-08-02T18:08:09.047Z,29.50
2022-08-02T18:10:35.770Z,29.50
2022-08-02T18:13:03.673Z,29.43
2022-08-02T18:15:32.631Z,29.39
2022-08-02T18:18:00.427Z,29.36
2022-08-02T18:20:27.273Z,29.35
2022-08-02T18:22:55.616Z,29.33
2022-08-02T18:25:37.330Z,29.31
2022-08-02T18:28:12.593Z,29.24
2022-08-02T18:30:39.397Z,29.20
2022-08-02T18:33:59.821Z,29.19
2022-08-02T18:38:42.945Z,29.17
2022-08-02T18:41:12.985Z,29.18
2022-08-02T18:43:43.618Z,29.15
2022-08-02T18:46:16.194Z,29.10
2022-08-02T18:48:46.443Z,29.09
2022-08-02T18:51:14.827Z,29.08
2022-08-02T18:53:42.792Z,29.04
2022-08-02T18:56:19.793Z,29.02
2022-08-02T18:58:58.514Z,28.98
2022-08-02T19:01:33.818Z,28.98
2022-08-02T19:04:04.602Z,29.00
2022-08-02T19:06:31.722Z,29.00
2022-08-02T19:09:05.857Z,28.95
2022-08-02T19:11:47.261Z,28.92
2022-08-02T19:14:24.316Z,28.91
2022-08-02T19:17:00.378Z,28.88
2022-08-02T19:19:44.086Z,28.92
2022-08-02T19:22:17.353Z,28.87
2022-08-02T19:25:01.050Z,28.91
2022-08-02T19:27:32.932Z,28.86
2022-08-02T19:30:02.269Z,28.85
2022-08-02T19:35:29.379Z,28.90
2022-08-02T19:38:09.151Z,28.93
2022-08-02T19:40:36.595Z,28.90
2022-08-02T19:44:26.590Z,28.87
2022-08-02T19:45:56.847Z,28.84
2022-08-02T19:48:25.413Z,28.86
2022-08-02T19:50:56.262Z,28.83
2022-08-02T19:53:29.118Z,28.82
2022-08-02T19:56:20.126Z,28.78
2022-08-02T19:58:47.816Z,28.79
2022-08-02T20:04:01.440Z,28.76
2022-08-02T20:06:29.820Z,28.78
2022-08-02T20:08:59.378Z,28.71
2022-08-02T20:11:29.090Z,28.69
2022-08-02T20:14:04.061Z,28.75
2022-08-02T20:16:32.737Z,28.68
2022-08-02T20:19:00.788Z,28.55
2022-08-02T20:21:35.895Z,28.48
2022-08-02T20:24:09.859Z,28.47
2022-08-02T20:26:47.062Z,28.36
2022-08-02T20:29:14.980Z,28.42
2022-08-02T20:31:44.311Z,28.25
2022-08-02T20:34:11.033Z,28.14
2022-08-02T20:36:39.417Z,28.16
2022-08-02T20:39:06.240Z,28.13
2022-08-02T20:41:37.062Z,28.10
2022-08-02T20:44:15.786Z,28.05
2022-08-02T20:46:56.604Z,27.87
2022-08-02T20:49:40.832Z,27.85
2022-08-02T20:52:23.659Z,27.90
2022-08-02T20:54:51.876Z,27.90
2022-08-02T20:57:18.681Z,27.87
2022-08-02T20:59:45.382Z,27.97
2022-08-02T21:02:19.306Z,27.93
2022-08-02T21:04:47.148Z,27.99
2022-08-02T21:07:17.763Z,28.01
2022-08-02T21:09:52.849Z,28.05
2022-08-02T21:12:22.030Z,27.98
2022-08-02T21:14:57.237Z,27.83
2022-08-02T21:17:33.552Z,27.75
2022-08-02T21:20:11.268Z,27.84
2022-08-02T21:22:38.620Z,27.81
2022-08-02T21:25:08.942Z,27.76
2022-08-02T21:27:52.936Z,27.71
2022-08-02T21:30:24.416Z,27.71
2022-08-02T21:32:54.731Z,27.75
2022-08-02T21:35:24.707Z,27.74
2022-08-02T21:37:57.916Z,27.78
2022-08-02T21:40:25.211Z,27.74
2022-08-02T21:42:53.910Z,27.77
2022-08-02T21:45:20.836Z,27.68
2022-08-02T21:47:48.532Z,27.65
2022-08-02T21:50:16.359Z,27.70
2022-08-02T21:52:52.271Z,27.69
2022-08-02T21:55:24.111Z,27.69
2022-08-02T21:58:06.520Z,27.60
2022-08-02T22:00:34.328Z,27.58
2022-08-02T22:03:01.023Z,27.51
2022-08-02T22:05:47.732Z,27.33
2022-08-02T22:08:14.478Z,27.38
2022-08-02T22:11:01.803Z,27.41
2022-08-02T22:13:38.662Z,27.48
2022-08-02T22:16:14.622Z,27.51
2022-08-02T22:18:51.376Z,27.39
2022-08-02T22:21:20.128Z,27.35
2022-08-02T22:23:50.412Z,27.40
2022-08-02T22:26:18.855Z,27.40
2022-08-02T22:28:51.746Z,27.43
2022-08-02T22:31:40.470Z,27.34
2022-08-02T22:34:11.801Z,27.41
2022-08-02T22:36:54.882Z,27.33
2022-08-02T22:39:21.786Z,27.29
2022-08-02T22:42:01.761Z,27.06
2022-08-02T22:44:33.741Z,26.83
2022-08-02T22:47:07.061Z,26.79
2022-08-02T22:52:29.899Z,26.80
2022-08-02T22:54:56.824Z,26.80
2022-08-02T22:57:30.667Z,26.85
2022-08-02T22:58:44.950Z,29.19
2022-08-02T22:58:54.158Z,28.79
2022-08-02T22:58:58.841Z,28.91
2022-08-02T22:59:59.950Z,26.76
2022-08-02T23:02:27.507Z,26.66
2022-08-02T23:04:54.927Z,26.60
2022-08-02T23:07:21.874Z,26.54
2022-08-02T23:09:48.663Z,26.45
2022-08-02T23:12:19.142Z,26.37
2022-08-02T23:14:47.290Z,26.26
2022-08-02T23:17:32.873Z,26.25
2022-08-02T23:19:59.691Z,26.28
2022-08-02T23:22:29.821Z,26.22
2022-08-02T23:25:00.716Z,26.07
2022-08-02T23:27:27.947Z,25.99
2022-08-02T23:29:54.699Z,25.81
2022-08-02T23:32:22.799Z,25.86
2022-08-02T23:34:52.500Z,25.80
2022-08-02T23:37:19.335Z,25.76
2022-08-02T23:39:46.596Z,25.77
2022-08-02T23:42:13.903Z,25.84
2022-08-02T23:44:40.668Z,25.80
2022-08-02T23:47:07.679Z,25.78
2022-08-02T23:49:34.536Z,25.78
2022-08-02T23:52:02.134Z,25.77
2022-08-02T23:54:29.204Z,25.83
2022-08-02T23:56:56.084Z,25.85
2022-08-02T23:59:22.861Z,25.79
